Time;durP1;ratioP1;P1;durP2;ratioP2;P2;SDS_P1;SDS_P2;PMS_P1;PMS_P2;Temp;Humidity;BMP_temperature;BMP_pressure;BME280_temperature;BME280_humidity;BME280_pressure;Samples;Min_cycle;Max_cycle;Signal;HPM_P1;HPM_P2
2022/11/05 00:10:58;;;;;;;5.25;2.72;;;;;;;7.37;100.00;101017.06;6270875;28;20408;-73
2022/11/05 00:17:20;;;;;;;5.03;2.70;;;;;;;7.29;100.00;101030.41;6271169;28;20610;-72
2022/11/05 00:20:21;;;;;;;7.63;3.17;;;;;;;7.25;100.00;101028.81;6270573;28;20059;-72
2022/11/05 00:26:42;;;;;;;4.28;2.42;;;;;;;7.26;100.00;101046.19;6270886;28;20049;-71
2022/11/05 00:29:45;;;;;;;6.03;2.45;;;;;;;7.23;100.00;101045.47;6270614;28;20063;-72
2022/11/05 00:32:47;;;;;;;4.70;2.45;;;;;;;7.27;100.00;101055.75;6270485;28;20504;-72
2022/11/05 00:35:49;;;;;;;8.95;3.03;;;;;;;7.22;100.00;101049.84;6270410;28;20428;-72
2022/11/05 00:38:50;;;;;;;8.07;2.65;;;;;;;7.22;100.00;101049.84;6270605;28;20044;-72
2022/11/05 00:45:09;;;;;;;10.02;2.53;;;;;;;7.27;100.00;101063.59;6268961;28;20049;-73
2022/11/05 00:51:30;;;;;;;8.90;3.08;;;;;;;7.08;100.00;101060.75;6270439;28;20057;-72
2022/11/05 00:54:31;;;;;;;7.82;2.17;;;;;;;7.00;100.00;101061.94;6270029;28;20056;-72
2022/11/05 00:57:33;;;;;;;6.55;2.85;;;;;;;6.87;100.00;101066.69;6270639;28;20048;-72
2022/11/05 01:00:38;;;;;;;6.85;2.75;;;;;;;6.78;100.00;101083.53;6269983;28;20053;-72
2022/11/05 01:03:40;;;;;;;4.07;2.72;;;;;;;6.72;100.00;101080.25;6271542;28;20048;-72
2022/11/05 01:06:41;;;;;;;9.48;3.10;;;;;;;6.70;100.00;101082.91;6274607;28;20045;-72
2022/11/05 01:09:42;;;;;;;6.93;3.63;;;;;;;6.63;100.00;101077.91;6274810;28;20053;-72
2022/11/05 01:12:44;;;;;;;8.20;2.95;;;;;;;6.59;100.00;101074.59;6274608;28;20052;-71
2022/11/05 01:15:49;;;;;;;6.20;2.88;;;;;;;6.55;100.00;101071.19;6274487;28;20427;-72
2022/11/05 01:18:51;;;;;;;6.38;2.72;;;;;;;6.45;100.00;101077.63;6274506;28;20514;-72
2022/11/05 01:21:52;;;;;;;5.93;3.15;;;;;;;6.38;100.00;101070.88;6274080;28;20045;-72
2022/11/05 01:24:53;;;;;;;8.45;3.60;;;;;;;6.30;100.00;101086.75;6273989;28;20053;-72
2022/11/05 01:27:55;;;;;;;8.65;2.90;;;;;;;6.27;100.00;101078.19;6274100;28;20496;-72
2022/11/05 01:30:58;;;;;;;8.40;2.72;;;;;;;6.22;100.00;101080.06;6273547;28;20504;-72
2022/11/05 01:34:00;;;;;;;8.95;4.07;;;;;;;6.18;100.00;101081.91;6273758;28;20055;-72
2022/11/05 01:37:01;;;;;;;6.20;3.15;;;;;;;6.14;100.00;101084.66;6274079;28;20055;-72
2022/11/05 01:40:03;;;;;;;5.10;2.97;;;;;;;6.10;100.00;101079.53;6273861;28;20602;-72
2022/11/05 01:43:14;;;;;;;4.43;2.78;;;;;;;6.07;100.00;101082.22;6273821;28;20072;-71
2022/11/05 01:46:19;;;;;;;9.90;2.60;;;;;;;6.06;100.00;101084.88;6273196;28;20491;-72
2022/11/05 01:49:29;;;;;;;6.28;3.80;;;;;;;6.05;100.00;101093.63;6273953;28;20064;-72
2022/11/05 01:52:34;;;;;;;4.50;2.42;;;;;;;6.04;100.00;101087.56;6273402;28;20057;-72
2022/11/05 01:55:40;;;;;;;11.93;2.85;;;;;;;6.05;100.00;101093.63;6273289;28;20535;-72
2022/11/05 01:58:47;;;;;;;4.47;2.80;;;;;;;6.07;100.00;101095.25;6273481;28;20784;-71
2022/11/05 02:01:50;;;;;;;8.23;3.17;;;;;;;6.14;100.00;101093.34;6273577;28;20057;-72
2022/11/05 02:04:57;;;;;;;7.03;3.40;;;;;;;6.21;100.00;101096.63;6273176;28;20049;-72
2022/11/05 02:07:59;;;;;;;7.30;2.47;;;;;;;6.20;100.00;101094.91;6273395;28;20416;-72
2022/11/05 02:11:01;;;;;;;10.55;2.78;;;;;;;6.26;100.00;101106.00;6272597;28;20053;-72
2022/11/05 02:14:02;;;;;;;5.75;2.30;;;;;;;6.27;100.00;101101.69;6273021;28;20045;-73
2022/11/05 02:17:13;;;;;;;5.32;2.78;;;;;;;6.28;100.00;101106.84;6273532;28;20049;-72
2022/11/05 02:20:29;;;;;;;9.45;2.65;;;;;;;6.31;100.00;101100.66;6273244;28;20053;-73
2022/11/05 02:24:14;;;;;;;6.88;3.05;;;;;;;6.35;100.00;101097.91;6272953;28;20059;-71
2022/11/05 02:27:28;;;;;;;7.05;2.22;;;;;;;6.38;100.00;101089.13;6265899;28;20421;-72
2022/11/05 02:30:41;;;;;;;3.70;2.90;;;;;;;6.39;100.00;101096.06;6272328;28;20045;-71
2022/11/05 02:33:55;;;;;;;4.35;2.33;;;;;;;6.35;100.00;101097.06;6272506;28;20059;-72
2022/11/05 02:37:05;;;;;;;7.60;3.30;;;;;;;6.26;100.00;101098.19;6272670;28;20048;-72
2022/11/05 02:40:14;;;;;;;8.10;2.70;;;;;;;6.18;100.00;101105.41;6272197;28;20052;-71
2022/11/05 02:43:26;;;;;;;5.15;2.75;;;;;;;6.09;100.00;101103.06;6272453;28;20052;-72
2022/11/05 02:46:34;;;;;;;7.70;3.13;;;;;;;6.03;100.00;101098.84;6272238;28;20071;-72
2022/11/05 02:49:46;;;;;;;7.35;2.75;;;;;;;5.99;100.00;101102.44;6272701;28;20049;-71
2022/11/05 02:52:56;;;;;;;7.18;2.67;;;;;;;5.91;100.00;101095.75;6272192;28;20393;-72
2022/11/05 02:56:03;;;;;;;8.07;3.17;;;;;;;5.84;100.00;101105.47;6272195;28;20057;-73
2022/11/05 02:59:04;;;;;;;6.28;3.70;;;;;;;5.78;100.00;101106.50;6272250;28;20539;-72
2022/11/05 03:02:07;;;;;;;5.22;2.53;;;;;;;5.79;100.00;101109.97;6272009;28;20524;-73
2022/11/05 03:05:09;;;;;;;5.93;2.70;;;;;;;5.73;100.00;101124.03;6271476;28;20049;-72
2022/11/05 03:08:17;;;;;;;4.90;3.10;;;;;;;5.76;100.00;101112.66;6272414;28;20049;-72
2022/11/05 03:11:21;;;;;;;8.85;4.18;;;;;;;5.72;100.00;101118.84;6270297;28;20049;-72
2022/11/05 03:14:30;;;;;;;16.15;3.35;;;;;;;5.69;100.00;101124.16;6271613;28;20052;-72
2022/11/05 03:17:43;;;;;;;12.50;2.85;;;;;;;5.64;100.00;101123.44;6271924;28;20049;-71
2022/11/05 03:20:50;;;;;;;4.82;2.70;;;;;;;5.59;100.00;101128.78;6271522;28;20048;-72
2022/11/05 03:23:58;;;;;;;5.72;2.70;;;;;;;5.55;100.00;101133.19;6271279;28;20404;-72
2022/11/05 03:27:04;;;;;;;10.93;3.50;;;;;;;5.50;100.00;101126.41;6271460;28;20119;-71
2022/11/05 03:30:08;;;;;;;5.05;2.95;;;;;;;5.45;100.00;101128.25;6271417;28;20424;-72
2022/11/05 03:33:17;;;;;;;4.25;2.47;;;;;;;5.44;100.00;101132.59;6271579;28;20057;-71
2022/11/05 03:36:23;;;;;;;15.23;4.00;;;;;;;5.42;100.00;101139.63;6271026;28;20484;-72
2022/11/05 03:39:29;;;;;;;5.15;2.88;;;;;;;5.46;100.00;101146.47;6271416;28;20155;-72
2022/11/05 03:42:36;;;;;;;6.35;2.88;;;;;;;5.45;100.00;101149.97;6270858;28;20052;-72
2022/11/05 03:45:43;;;;;;;5.97;3.28;;;;;;;5.41;100.00;101156.16;6271311;28;20049;-72
2022/11/05 03:48:51;;;;;;;6.55;2.67;;;;;;;5.41;100.00;101155.31;6271272;28;20056;-72
2022/11/05 03:51:58;;;;;;;6.40;3.70;;;;;;;5.44;100.00;101158.69;6271333;28;20049;-71
2022/11/05 03:55:00;;;;;;;4.78;2.78;;;;;;;5.41;100.00;101156.16;6270752;28;20496;-72
2022/11/05 03:58:04;;;;;;;6.13;3.00;;;;;;;5.41;100.00;101158.78;6271479;28;20055;-71
2022/11/05 04:01:06;;;;;;;5.88;3.30;;;;;;;5.43;100.00;101167.41;6270825;28;20044;-73
2022/11/05 04:04:09;;;;;;;8.23;3.80;;;;;;;5.37;100.00;101167.56;6270899;28;20064;-72
2022/11/05 04:13:50;;;;;;;4.78;2.95;;;;;;;5.27;100.00;101173.91;6270736;28;20424;-71
2022/11/05 04:17:07;;;;;;;5.70;2.70;;;;;;;5.25;100.00;101173.06;6271396;28;20052;-71
2022/11/05 04:26:48;;;;;;;4.13;2.95;;;;;;;5.21;100.00;101182.69;6270955;28;20053;-72
2022/11/05 04:33:10;;;;;;;3.80;2.40;;;;;;;5.34;100.00;101193.69;6270742;28;20080;-71
2022/11/05 04:36:13;;;;;;;4.70;2.53;;;;;;;5.35;100.00;101187.56;6270614;28;20049;-72
2022/11/05 04:39:14;;;;;;;6.72;3.55;;;;;;;5.37;100.00;101187.56;6272643;28;20525;-72
2022/11/05 04:42:15;;;;;;;6.20;2.97;;;;;;;5.35;100.00;101180.59;6275214;28;20057;-71
2022/11/05 04:45:17;;;;;;;4.95;3.10;;;;;;;5.30;100.00;101187.69;6274964;28;20099;-71
2022/11/05 04:48:18;;;;;;;4.95;2.95;;;;;;;5.25;100.00;101184.34;6275377;28;20056;-72
2022/11/05 04:51:21;;;;;;;15.25;3.33;;;;;;;5.24;100.00;101189.59;6274837;28;20414;-72
2022/11/05 04:54:22;;;;;;;5.22;3.15;;;;;;;5.23;100.00;101183.53;6274838;28;20049;-72
2022/11/05 04:57:24;;;;;;;6.72;2.75;;;;;;;5.25;100.00;101191.31;6275254;28;20045;-72
2022/11/05 05:00:25;;;;;;;9.35;3.42;;;;;;;5.29;100.00;101191.19;6275128;28;20052;-71
2022/11/05 05:03:27;;;;;;;5.22;2.88;;;;;;;5.27;100.00;101185.19;6274968;28;20056;-72
2022/11/05 05:06:29;;;;;;;9.60;3.78;;;;;;;5.26;100.00;101193.00;6274440;28;20401;-72
2022/11/05 05:09:31;;;;;;;4.53;2.70;;;;;;;5.23;100.00;101193.97;6274923;28;20041;-72
2022/11/05 05:12:33;;;;;;;10.73;3.03;;;;;;;5.21;100.00;101200.09;6274267;28;20053;-72
2022/11/05 05:15:34;;;;;;;4.43;2.80;;;;;;;5.18;100.00;101197.53;6274543;28;20056;-72
2022/11/05 05:18:36;;;;;;;3.90;2.45;;;;;;;5.11;100.00;101201.19;6274569;28;20045;-72
2022/11/05 05:21:38;;;;;;;4.80;2.33;;;;;;;5.05;100.00;101200.47;6274540;28;20048;-72
2022/11/05 05:24:39;;;;;;;6.75;2.80;;;;;;;5.01;100.00;101196.22;6274087;28;20053;-72
2022/11/05 05:27:40;;;;;;;7.60;4.00;;;;;;;5.03;100.00;101204.81;6274474;28;20052;-72
2022/11/05 05:30:42;;;;;;;9.32;3.80;;;;;;;4.99;100.00;101204.94;6274086;28;20496;-71
2022/11/05 05:33:43;;;;;;;5.25;2.97;;;;;;;4.94;100.00;101210.25;6273988;28;20052;-72
2022/11/05 05:36:46;;;;;;;7.05;3.25;;;;;;;4.89;100.00;101206.03;6273826;28;20056;-72
2022/11/05 05:39:48;;;;;;;5.03;2.60;;;;;;;4.84;100.00;101211.34;6273648;28;20493;-71
2022/11/05 05:42:53;;;;;;;6.75;3.15;;;;;;;4.80;100.00;101207.94;6273852;28;20416;-72
2022/11/05 05:45:56;;;;;;;9.95;3.00;;;;;;;4.78;100.00;101212.34;6327383;23;20056;-78
2022/11/05 05:48:57;;;;;;;5.10;2.70;;;;;;;4.72;100.00;101214.22;6272819;28;20056;-77
2022/11/05 05:52:00;;;;;;;6.75;3.08;;;;;;;4.71;100.00;101223.78;6273304;28;20394;-77
2022/11/05 05:55:01;;;;;;;4.75;3.05;;;;;;;4.69;100.00;101216.91;6273387;28;20055;-78
2022/11/05 05:58:03;;;;;;;11.02;4.38;;;;;;;4.66;100.00;101220.41;6273666;28;20501;-78
2022/11/05 06:01:06;;;;;;;10.25;3.88;;;;;;;4.66;100.00;101230.84;6273274;28;20064;-78
2022/11/05 06:04:09;;;;;;;8.00;3.40;;;;;;;4.59;100.00;101226.66;6273343;28;20049;-78
2022/11/05 06:07:11;;;;;;;7.03;2.42;;;;;;;4.58;100.00;101228.38;6273389;28;20049;-78
2022/11/05 06:10:13;;;;;;;7.80;3.85;;;;;;;4.57;100.00;101231.88;6273010;28;20417;-77
2022/11/05 06:13:14;;;;;;;8.13;3.67;;;;;;;4.60;100.00;101240.53;6273462;28;20052;-79
2022/11/05 06:16:15;;;;;;;7.28;3.45;;;;;;;4.60;100.00;101237.94;6273059;28;20064;-77
2022/11/05 06:19:17;;;;;;;9.75;4.00;;;;;;;4.58;100.00;101240.53;6273109;28;20048;-78
2022/11/05 06:22:20;;;;;;;8.00;3.20;;;;;;;4.55;100.00;101248.44;6272870;28;20524;-78
2022/11/05 06:25:21;;;;;;;11.18;3.95;;;;;;;4.53;100.00;101253.66;6272564;28;20049;-78
2022/11/05 06:28:22;;;;;;;8.90;3.60;;;;;;;4.51;100.00;101249.38;6272870;28;20041;-78
2022/11/05 06:31:24;;;;;;;8.27;3.53;;;;;;;4.49;100.00;101254.59;6272536;28;20049;-78
2022/11/05 06:34:26;;;;;;;7.47;3.67;;;;;;;4.47;100.00;101265.94;6272391;28;20413;-78
2022/11/05 06:37:32;;;;;;;12.05;3.35;;;;;;;4.45;100.00;101265.97;6272983;28;20045;-78
2022/11/05 06:40:33;;;;;;;13.85;3.38;;;;;;;4.47;100.00;101263.34;6272615;28;20060;-78
2022/11/05 06:43:35;;;;;;;6.47;2.65;;;;;;;4.42;100.00;101266.03;6272814;28;20055;-78
2022/11/05 06:46:36;;;;;;;8.13;3.88;;;;;;;4.42;100.00;101259.97;6272029;28;20053;-78
2022/11/05 06:49:38;;;;;;;7.15;3.00;;;;;;;4.39;100.00;101263.47;6272463;28;20049;-78
2022/11/05 06:52:41;;;;;;;7.97;3.42;;;;;;;4.40;100.00;101273.00;6272304;28;20049;-78
2022/11/05 06:55:43;;;;;;;5.20;3.05;;;;;;;4.41;100.00;101269.53;6271886;28;20060;-78
2022/11/05 06:58:45;;;;;;;6.82;3.15;;;;;;;4.44;100.00;101286.81;6272229;28;20497;-78
2022/11/05 07:01:46;;;;;;;7.45;3.55;;;;;;;4.45;100.00;101286.81;6271405;28;20057;-78
2022/11/05 07:04:47;;;;;;;3.72;2.63;;;;;;;4.48;100.00;101286.72;6271975;28;20051;-78
2022/11/05 07:07:50;;;;;;;6.70;3.45;;;;;;;4.50;100.00;101299.72;6271783;28;20052;-78
2022/11/05 07:10:51;;;;;;;5.70;3.25;;;;;;;4.53;100.00;101302.25;6271029;28;20049;-78
2022/11/05 07:13:53;;;;;;;7.32;3.13;;;;;;;4.58;100.00;101301.25;6269827;28;20052;-78
2022/11/05 07:16:56;;;;;;;6.70;2.63;;;;;;;4.60;100.00;101306.44;6270541;28;20497;-79
2022/11/05 07:19:58;;;;;;;7.50;3.08;;;;;;;4.69;100.00;101319.28;6267409;28;20045;-77
2022/11/05 07:23:05;;;;;;;5.68;3.03;;;;;;;4.74;100.00;101324.41;6270021;28;20428;-76
2022/11/05 07:26:06;;;;;;;14.40;3.58;;;;;;;4.81;100.00;101329.47;6269622;28;20056;-76
2022/11/05 07:29:08;;;;;;;6.70;3.15;;;;;;;4.92;100.00;101324.03;6271332;28;20089;-77
2022/11/05 07:32:09;;;;;;;7.07;3.35;;;;;;;5.01;100.00;101330.78;6271131;28;20037;-78
2022/11/05 07:35:11;;;;;;;9.48;3.83;;;;;;;5.03;100.00;101335.06;6270706;28;20045;-79
2022/11/05 07:38:13;;;;;;;7.32;3.45;;;;;;;5.09;100.00;101332.34;6271182;28;20052;-77
2022/11/05 07:41:16;;;;;;;5.53;3.17;;;;;;;5.13;100.00;101337.47;6270748;28;20056;-79
2022/11/05 07:44:17;;;;;;;4.53;2.45;;;;;;;5.18;100.00;101346.03;6270195;28;20179;-78
2022/11/05 07:47:18;;;;;;;8.38;3.40;;;;;;;5.26;100.00;101352.81;6270096;28;20045;-77
2022/11/05 07:50:22;;;;;;;7.28;3.42;;;;;;;5.31;100.00;101353.59;6270286;28;20049;-78
2022/11/05 07:53:24;;;;;;;9.27;3.40;;;;;;;5.42;100.00;101350.75;6270396;28;20051;-78
2022/11/05 07:56:26;;;;;;;6.03;3.00;;;;;;;5.52;100.00;101356.59;6268937;28;20053;-79
2022/11/05 07:59:27;;;;;;;6.05;3.58;;;;;;;5.58;100.00;101359.06;6271344;28;20053;-78
2022/11/05 08:02:29;;;;;;;9.95;3.70;;;;;;;5.63;100.00;101348.53;6269296;28;20049;-78
2022/11/05 08:05:33;;;;;;;12.25;3.75;;;;;;;5.66;100.00;101362.34;6270232;28;20127;-77
2022/11/05 08:08:35;;;;;;;6.88;4.00;;;;;;;5.72;100.00;101358.75;6270898;28;20436;-78
2022/11/05 08:11:37;;;;;;;9.18;3.03;;;;;;;5.77;100.00;101359.50;6270736;28;20492;-78
2022/11/05 08:14:38;;;;;;;11.80;4.65;;;;;;;5.83;100.00;101362.81;6275088;28;20068;-78
2022/11/05 08:17:40;;;;;;;9.35;3.85;;;;;;;5.89;100.00;101360.97;6276003;28;20494;-78
2022/11/05 08:20:43;;;;;;;8.75;3.55;;;;;;;5.92;100.00;101358.31;6275574;28;20052;-78
2022/11/05 08:23:46;;;;;;;12.48;3.58;;;;;;;5.97;100.00;101364.28;6275437;28;20420;-77
2022/11/05 08:26:47;;;;;;;9.52;3.15;;;;;;;6.01;100.00;101369.38;6275662;28;20064;-77
2022/11/05 08:29:49;;;;;;;6.45;3.38;;;;;;;6.08;100.00;101367.47;6275411;28;20049;-76
2022/11/05 08:32:50;;;;;;;6.47;3.28;;;;;;;6.14;100.00;101366.47;6275707;28;20056;-76
2022/11/05 08:35:52;;;;;;;9.63;3.30;;;;;;;6.20;100.00;101366.31;6275341;28;20053;-77
2022/11/05 08:38:55;;;;;;;7.65;3.60;;;;;;;6.27;100.00;101366.13;6275781;28;20044;-76
2022/11/05 08:41:56;;;;;;;9.40;3.53;;;;;;;6.33;100.00;101360.75;6275317;28;20412;-77
2022/11/05 08:44:58;;;;;;;8.15;3.85;;;;;;;6.40;100.00;101371.00;6275077;28;20052;-76
2022/11/05 08:48:00;;;;;;;9.43;4.72;;;;;;;6.40;100.00;101371.00;6275158;28;20504;-76
2022/11/05 08:51:01;;;;;;;6.97;3.53;;;;;;;6.43;100.00;101374.41;6275112;28;20064;-76
2022/11/05 08:54:05;;;;;;;9.05;4.05;;;;;;;6.49;100.00;101376.84;6274825;28;20052;-76
2022/11/05 08:57:06;;;;;;;6.80;3.70;;;;;;;6.56;100.00;101374.94;6275162;28;20045;-77
2022/11/05 09:00:09;;;;;;;12.70;3.97;;;;;;;6.68;100.00;101387.69;6274749;28;20045;-76
2022/11/05 09:03:11;;;;;;;8.73;4.55;;;;;;;6.65;100.00;101387.75;6275118;28;20055;-76
2022/11/05 09:06:13;;;;;;;10.73;3.97;;;;;;;6.67;100.00;101380.72;6274301;28;20492;-76
2022/11/05 09:09:16;;;;;;;6.85;4.10;;;;;;;6.75;100.00;101390.97;6274042;28;20049;-76
2022/11/05 09:12:17;;;;;;;9.57;5.10;;;;;;;6.80;100.00;101384.72;6274426;28;20060;-77
2022/11/05 09:15:19;;;;;;;9.55;4.68;;;;;;;6.85;100.00;101395.03;6274344;28;20045;-77
2022/11/05 09:18:20;;;;;;;14.07;4.57;;;;;;;6.81;100.00;101388.19;6274667;28;20053;-76
2022/11/05 09:21:22;;;;;;;8.40;4.03;;;;;;;6.83;100.00;101396.84;6274329;28;20057;-76
2022/11/05 09:24:24;;;;;;;7.32;3.55;;;;;;;6.85;100.00;101392.44;6273258;28;20045;-77
2022/11/05 09:27:26;;;;;;;8.30;4.25;;;;;;;6.89;100.00;101394.06;6274250;28;20232;-76
2022/11/05 09:30:27;;;;;;;10.65;4.28;;;;;;;6.98;100.00;101393.81;6273827;28;20492;-76
2022/11/05 09:33:29;;;;;;;7.10;3.70;;;;;;;7.07;100.00;101392.69;6266464;28;20060;-76
2022/11/05 09:36:30;;;;;;;8.85;4.30;;;;;;;7.11;100.00;101396.94;6273733;28;20052;-77
2022/11/05 09:39:33;;;;;;;7.85;4.50;;;;;;;7.20;100.00;101407.13;6274051;28;20041;-76
2022/11/05 09:42:38;;;;;;;9.43;4.07;;;;;;;7.34;100.00;101412.81;6273985;28;20049;-76
2022/11/05 09:45:40;;;;;;;14.10;3.50;;;;;;;7.52;100.00;101408.78;6273814;28;20048;-76
2022/11/05 09:48:45;;;;;;;8.88;3.92;;;;;;;7.61;100.00;101408.50;6273717;28;20248;-74
2022/11/05 09:51:46;;;;;;;8.48;3.92;;;;;;;7.68;100.00;101405.72;6267995;28;20045;-75
2022/11/05 09:54:49;;;;;;;11.32;4.68;;;;;;;7.74;100.00;101416.00;6273402;28;20424;-77
2022/11/05 09:57:54;;;;;;;7.80;3.55;;;;;;;7.79;100.00;101414.94;6274190;28;20049;-77
2022/11/05 10:00:57;;;;;;;7.30;3.42;;;;;;;7.89;100.00;101423.34;6274211;28;20045;-75
2022/11/05 10:04:02;;;;;;;11.13;4.80;;;;;;;8.08;100.00;101431.47;6273865;28;20049;-74
2022/11/05 10:07:07;;;;;;;9.70;4.50;;;;;;;8.12;100.00;101435.72;6273847;28;20052;-75
2022/11/05 10:10:25;;;;;;;12.25;4.32;;;;;;;8.14;100.00;101437.41;6270143;28;20512;-76
2022/11/05 10:13:32;;;;;;;10.27;4.30;;;;;;;8.18;100.00;101442.53;6274672;28;20091;-72
2022/11/05 10:16:37;;;;;;;7.80;4.22;;;;;;;8.25;100.00;101436.19;6273883;28;20060;-74
2022/11/05 10:19:43;;;;;;;18.67;5.25;;;;;;;8.35;100.00;101437.59;6188682;28;20138;-73
2022/11/05 10:22:44;;;;;;;7.45;4.50;;;;;;;8.44;100.00;101436.47;6190173;28;20080;-73
2022/11/05 10:25:50;;;;;;;10.85;5.20;;;;;;;8.47;100.00;101426.75;6198044;28;20053;-74
2022/11/05 10:28:52;;;;;;;7.20;3.92;;;;;;;8.63;100.00;101430.56;6199347;28;20058;-73
2022/11/05 10:31:55;;;;;;;14.38;4.75;;;;;;;8.79;100.00;101435.28;6197366;28;20062;-73
2022/11/05 10:34:59;;;;;;;7.20;3.55;;;;;;;8.92;100.00;101433.06;6198970;28;20054;-73
2022/11/05 10:38:01;;;;;;;11.68;4.65;;;;;;;8.98;100.00;101435.47;6199077;28;20046;-73
2022/11/05 10:41:25;;;;;;;7.82;4.40;;;;;;;9.08;100.00;101436.84;6198829;28;20512;-73
2022/11/05 10:44:34;;;;;;;6.20;3.72;;;;;;;9.29;100.00;101440.47;6198782;28;20230;-76
2022/11/05 10:47:43;;;;;;;;;;;;;;;9.46;100.00;101434.59;6199455;28;20407;-75
2022/11/05 10:50:45;;;;;;;12.52;5.03;;;;;;;9.64;100.00;101431.28;6198833;28;19921;-76
2022/11/05 10:53:53;;;;;;;11.57;4.45;;;;;;;9.76;100.00;101433.41;6198682;28;20521;-74
2022/11/05 10:56:55;;;;;;;10.35;5.28;;;;;;;9.96;100.00;101435.25;6198768;28;20155;-75
2022/11/05 11:00:20;;;;;;;9.10;4.40;;;;;;;10.10;100.00;101434.72;6198527;28;20057;-73
2022/11/05 11:03:35;;;;;;;7.68;4.07;;;;;;;10.13;100.00;101432.81;6198455;28;20046;-74
2022/11/05 11:06:38;;;;;;;10.15;4.28;;;;;;;10.30;100.00;101432.16;6198228;28;20054;-74
2022/11/05 11:09:39;;;;;;;7.28;4.65;;;;;;;10.19;100.00;101429.09;6198605;28;20189;-74
2022/11/05 11:12:43;;;;;;;13.50;4.78;;;;;;;10.10;100.00;101430.31;6198401;28;20050;-74
2022/11/05 11:15:44;;;;;;;10.45;4.47;;;;;;;10.09;100.00;101436.50;6197813;28;20517;-74
2022/11/05 11:18:46;;;;;;;8.32;3.83;;;;;;;10.16;100.00;101435.31;6198377;28;20060;-73
2022/11/05 11:22:12;;;;;;;9.75;4.35;;;;;;;10.24;100.00;101426.28;6197935;28;20050;-74
2022/11/05 11:25:24;;;;;;;6.25;3.90;;;;;;;10.30;100.00;101428.66;6197944;28;20050;-74
2022/11/05 11:28:31;;;;;;;9.80;4.03;;;;;;;10.15;100.00;101428.34;6198117;28;20086;-74
2022/11/05 11:31:37;;;;;;;8.18;4.38;;;;;;;10.34;100.00;101431.09;6197747;28;20058;-73
2022/11/05 11:34:40;;;;;;;10.48;3.47;;;;;;;10.69;100.00;101434.03;6197630;28;20054;-73
2022/11/05 11:37:42;;;;;;;9.15;4.38;;;;;;;11.04;100.00;101429.03;6197895;28;20058;-74
2022/11/05 11:40:44;;;;;;;7.47;3.70;;;;;;;11.25;100.00;101424.56;6197680;28;20046;-74
2022/11/05 11:43:47;;;;;;;7.15;3.35;;;;;;;11.39;100.00;101424.78;6198795;28;20057;-74
2022/11/05 11:46:52;;;;;;;7.40;3.60;;;;;;;11.48;100.00;101418.25;6234219;23;20053;-70
2022/11/05 11:49:55;;;;;;;6.85;4.22;;;;;;;11.58;100.00;101409.88;6266752;28;20053;-70
2022/11/05 11:53:15;;;;;;;5.40;2.80;;;;;;;11.58;99.47;101404.59;6251760;28;20049;-70
2022/11/05 11:56:19;;;;;;;8.93;3.70;;;;;;;11.66;100.00;101407.72;6246381;28;20053;-70
2022/11/05 11:59:25;;;;;;;10.95;3.80;;;;;;;11.65;99.16;101403.38;6246537;28;20049;-71
2022/11/05 12:03:03;;;;;;;5.65;3.03;;;;;;;11.61;97.82;101414.13;6246443;28;20053;-69
2022/11/05 12:06:25;;;;;;;10.32;3.63;;;;;;;11.55;96.17;101406.53;6233208;28;20432;-70
2022/11/05 12:09:40;;;;;;;8.70;4.00;;;;;;;11.63;97.05;101420.19;6246245;28;20440;-70
2022/11/05 12:12:51;;;;;;;5.78;3.67;;;;;;;11.53;92.15;101409.19;6246545;28;20049;-70
2022/11/05 12:15:57;;;;;;;11.43;4.20;;;;;;;11.43;93.48;101406.16;6245915;28;20060;-70
2022/11/05 12:19:06;;;;;;;8.73;3.88;;;;;;;11.41;94.85;101415.06;6246486;28;20045;-70
2022/11/05 12:22:20;;;;;;;16.27;5.30;;;;;;;11.41;94.16;101413.28;6246003;28;20060;-71
2022/11/05 12:25:29;;;;;;;9.95;3.75;;;;;;;11.39;95.71;101409.84;6246071;28;20049;-70
2022/11/05 12:28:48;;;;;;;10.45;4.88;;;;;;;11.48;96.39;101416.47;6246764;28;20049;-70
2022/11/05 12:32:02;;;;;;;11.52;4.45;;;;;;;11.61;96.31;101404.44;6245958;28;20050;-70
2022/11/05 12:35:15;;;;;;;9.73;4.68;;;;;;;11.64;95.64;101401.69;6245837;28;20061;-71
2022/11/05 12:38:32;;;;;;;8.57;5.05;;;;;;;11.75;94.52;101405.56;6246187;28;20054;-70
2022/11/05 12:41:43;;;;;;;12.85;4.88;;;;;;;11.87;94.07;101405.03;6245828;28;20057;-70
2022/11/05 12:44:54;;;;;;;14.85;6.40;;;;;;;11.87;94.39;101413.78;6245742;28;20060;-70
2022/11/05 12:48:16;;;;;;;11.52;5.10;;;;;;;11.87;90.71;101416.41;6246089;28;20053;-70
2022/11/05 12:51:30;;;;;;;8.15;4.55;;;;;;;11.90;91.59;101420.69;6245504;28;20041;-70
2022/11/05 12:54:43;;;;;;;9.52;4.20;;;;;;;11.99;91.67;101411.47;6245575;28;20049;-69
2022/11/05 12:57:49;;;;;;;7.78;4.22;;;;;;;12.07;91.86;101418.06;6246026;28;20065;-70
2022/11/05 13:00:56;;;;;;;9.40;4.28;;;;;;;12.24;88.96;101409.34;6248509;28;20041;-70
2022/11/05 13:04:01;;;;;;;9.68;4.13;;;;;;;12.26;90.42;101411.88;6249924;28;20064;-70
2022/11/05 13:07:08;;;;;;;12.30;4.85;;;;;;;12.31;88.66;101415.16;6250177;28;20421;-70
2022/11/05 13:10:21;;;;;;;14.02;4.82;;;;;;;12.39;88.29;101403.28;6249746;28;20049;-70
2022/11/05 13:13:29;;;;;;;17.40;5.03;;;;;;;12.34;87.59;101407.94;6250210;28;20049;-70
2022/11/05 13:16:35;;;;;;;11.48;4.43;;;;;;;12.38;88.90;101401.59;6249518;28;20053;-70
2022/11/05 13:19:45;;;;;;;12.48;5.32;;;;;;;12.44;87.18;101401.31;6249779;28;20408;-70
2022/11/05 13:22:51;;;;;;;14.98;4.30;;;;;;;12.31;88.44;101394.94;6250106;28;20052;-70
2022/11/05 13:25:57;;;;;;;10.02;4.47;;;;;;;12.27;90.02;101397.81;6249631;28;20049;-70
2022/11/05 13:29:04;;;;;;;10.15;4.10;;;;;;;12.33;90.77;101398.34;6249781;28;20520;-70
2022/11/05 13:32:16;;;;;;;8.50;4.07;;;;;;;12.27;87.34;101396.03;6249561;28;20049;-71
2022/11/05 13:35:24;;;;;;;12.25;4.18;;;;;;;12.24;89.54;101388.25;6249191;28;20053;-70
2022/11/05 13:42:10;;;;;;;11.30;3.88;;;;;;;12.08;89.60;101388.19;6236094;28;20501;-71
2022/11/05 13:45:26;;;;;;;;;;;;;;;11.88;89.99;101388.28;6249416;28;20421;-70
2022/11/05 13:48:53;;;;;;;11.85;4.15;;;;;;;11.58;90.80;101386.19;6247328;28;19928;-70
2022/11/05 13:51:57;;;;;;;7.05;3.47;;;;;;;11.36;92.86;101383.69;6248864;28;20057;-70
2022/11/05 13:55:22;;;;;;;7.00;3.35;;;;;;;11.20;94.54;101387.09;6249121;28;20524;-69
2022/11/05 13:58:52;;;;;;;9.60;3.45;;;;;;;11.00;95.02;101391.50;6249053;28;20395;-70
2022/11/05 14:01:55;;;;;;;10.10;3.92;;;;;;;10.97;95.85;101388.97;6248749;28;20045;-70
2022/11/05 14:04:59;;;;;;;5.07;2.88;;;;;;;10.95;97.16;101382.94;6248712;28;20049;-71
2022/11/05 14:08:08;;;;;;;4.30;3.42;;;;;;;10.92;96.50;101386.56;6248861;28;20053;-70
2022/11/05 14:11:21;;;;;;;7.68;3.03;;;;;;;10.91;97.00;101387.50;6248206;28;20052;-70
2022/11/05 14:14:25;;;;;;;4.72;2.65;;;;;;;10.88;98.27;101392.03;6248296;28;20045;-70
2022/11/05 14:17:32;;;;;;;6.85;2.85;;;;;;;10.85;99.08;101398.25;6248870;28;20056;-70
2022/11/05 14:20:56;;;;;;;6.25;3.40;;;;;;;10.81;99.60;101398.47;6248747;28;20054;-71
2022/11/05 14:24:00;;;;;;;8.60;3.80;;;;;;;10.76;100.00;101396.03;6248622;28;20049;-70
2022/11/05 14:27:48;;;;;;;6.43;2.85;;;;;;;10.70;100.00;101405.97;6248304;28;20064;-70
2022/11/05 14:30:49;;;;;;;6.45;2.70;;;;;;;10.72;100.00;101398.84;6247999;28;20079;-70
2022/11/05 14:34:02;;;;;;;6.57;3.10;;;;;;;10.72;100.00;101389.22;6248109;28;20049;-70
2022/11/05 14:37:23;;;;;;;5.10;2.72;;;;;;;10.75;100.00;101396.97;6248246;28;20241;-70
2022/11/05 14:40:33;;;;;;;6.93;2.85;;;;;;;10.74;100.00;101402.28;6248107;28;20046;-70
2022/11/05 14:43:35;;;;;;;5.18;2.80;;;;;;;10.71;100.00;101392.75;6248060;28;20063;-70
2022/11/05 14:46:41;;;;;;;9.57;3.00;;;;;;;10.64;100.00;101396.59;6247314;28;20087;-70
2022/11/05 14:49:51;;;;;;;3.75;2.33;;;;;;;10.61;100.00;101396.69;6247653;28;20046;-70
2022/11/05 14:52:55;;;;;;;6.38;2.33;;;;;;;10.54;100.00;101390.03;6248008;28;20519;-70
2022/11/05 14:56:02;;;;;;;4.10;2.88;;;;;;;10.48;100.00;101398.16;6247361;28;20049;-69
2022/11/05 14:59:40;;;;;;;5.40;3.25;;;;;;;10.45;100.00;101396.53;6247748;28;20056;-70
2022/11/05 15:02:56;;;;;;;9.20;2.55;;;;;;;10.43;100.00;101405.38;6247450;28;20059;-71
2022/11/05 15:06:05;;;;;;;7.07;2.65;;;;;;;10.39;100.00;101405.50;6247313;28;20087;-70